createdAt,value
2018-07-21T00:04:53.307Z,0
2018-07-21T00:09:53.629Z,0
2018-07-21T00:14:53.558Z,0
2018-07-21T00:19:53.379Z,0
2018-07-21T00:24:53.311Z,0
2018-07-21T00:29:53.508Z,0
2018-07-21T00:34:53.526Z,0
2018-07-21T00:39:53.497Z,0
2018-07-21T00:44:53.387Z,0
2018-07-21T00:49:53.457Z,0
2018-07-21T00:54:53.532Z,0
2018-07-21T00:59:53.528Z,0
2018-07-21T01:04:53.419Z,0
2018-07-21T01:09:53.250Z,0
2018-07-21T01:14:53.538Z,0
2018-07-21T01:19:53.218Z,0
2018-07-21T01:24:53.284Z,0
2018-07-21T01:29:53.243Z,0
2018-07-21T01:34:53.437Z,0
2018-07-21T01:39:53.510Z,0
2018-07-21T01:44:53.383Z,0
2018-07-21T01:49:53.247Z,0
2018-07-21T01:54:53.200Z,0
2018-07-21T01:59:53.219Z,0
2018-07-21T02:04:53.272Z,0
2018-07-21T02:09:53.198Z,0
2018-07-21T02:14:53.466Z,0
2018-07-21T02:19:53.380Z,0
2018-07-21T02:24:53.300Z,0
2018-07-21T02:29:53.352Z,0
2018-07-21T02:34:53.416Z,0
2018-07-21T02:39:53.279Z,0
2018-07-21T02:44:53.265Z,0
2018-07-21T02:49:53.179Z,0
2018-07-21T02:54:53.172Z,0
2018-07-21T02:59:53.380Z,0
2018-07-21T03:04:53.109Z,0
2018-07-21T03:09:54.105Z,0
2018-07-21T03:14:53.309Z,0
2018-07-21T03:19:53.383Z,0
2018-07-21T03:24:53.024Z,0
2018-07-21T03:29:53.169Z,0
2018-07-21T03:34:53.349Z,0
2018-07-21T03:39:53.329Z,0.8
2018-07-21T03:44:53.209Z,1.7
2018-07-21T03:49:53.279Z,3.3
2018-07-21T03:54:53.051Z,5
2018-07-21T03:59:53.318Z,7.5
2018-07-21T04:04:53.073Z,9.2
2018-07-21T04:09:53.327Z,10.8
2018-07-21T04:14:53.237Z,13.3
2018-07-21T04:19:52.967Z,15.8
2018-07-21T04:24:53.220Z,18.3
2018-07-21T04:29:53.111Z,21.7
2018-07-21T04:34:52.981Z,25.8
2018-07-21T04:39:52.970Z,30
2018-07-21T04:44:53.110Z,34.2
2018-07-21T04:49:53.287Z,36.7
2018-07-21T04:54:52.934Z,40
2018-07-21T04:59:53.191Z,43.3
2018-07-21T05:04:52.953Z,45.8
2018-07-21T05:09:52.964Z,49.2
2018-07-21T05:14:52.926Z,52.5
2018-07-21T05:19:52.833Z,55
2018-07-21T05:24:53.141Z,57.5
2018-07-21T05:29:52.823Z,60.8
2018-07-21T05:34:52.989Z,64.2
2018-07-21T05:39:53.155Z,66.7
2018-07-21T05:44:53.091Z,70
2018-07-21T05:49:53.033Z,72.5
2018-07-21T05:54:52.790Z,75
2018-07-21T05:59:53.046Z,78.3
2018-07-21T06:04:52.940Z,81.7
2018-07-21T06:09:53.034Z,85.8
2018-07-21T06:14:52.877Z,89.2
2018-07-21T06:19:52.919Z,92.5
2018-07-21T06:24:52.712Z,90
2018-07-21T06:29:52.707Z,95
2018-07-21T06:34:53.049Z,96.7
2018-07-21T06:39:52.959Z,99.2
2018-07-21T06:44:53.047Z,100.8
2018-07-21T06:49:52.930Z,102.5
2018-07-21T06:54:52.923Z,104.2
2018-07-21T06:59:52.914Z,106.7
2018-07-21T07:04:52.886Z,108.3
2018-07-21T07:09:52.785Z,109.2
2018-07-21T07:14:52.656Z,110.8
2018-07-21T07:19:52.867Z,111.7
2018-07-21T07:24:52.976Z,114.2
2018-07-21T07:29:52.607Z,115.8
2018-07-21T07:34:52.612Z,116.7
2018-07-21T07:39:52.823Z,119.2
2018-07-21T07:44:52.689Z,119.2
2018-07-21T07:49:52.711Z,123.3
2018-07-21T07:54:52.625Z,127.5
2018-07-21T07:59:52.907Z,135.8
2018-07-21T08:04:52.751Z,142.5
2018-07-21T08:09:52.580Z,148.3
2018-07-21T08:14:52.735Z,156.7
2018-07-21T08:19:52.634Z,166.7
2018-07-21T08:24:52.545Z,175
2018-07-21T08:29:52.548Z,182.5
2018-07-21T08:34:52.873Z,201.7
2018-07-21T08:39:52.590Z,220.8
2018-07-21T08:44:52.645Z,239.2
2018-07-21T08:49:52.839Z,270.8
2018-07-21T08:54:52.734Z,282.5
2018-07-21T08:59:52.649Z,306.7
2018-07-21T09:04:52.735Z,326.7
2018-07-21T09:09:52.574Z,342.5
2018-07-21T09:14:52.499Z,353.3
2018-07-21T09:19:52.465Z,378.3
2018-07-21T09:24:52.753Z,389.2
2018-07-21T09:29:52.420Z,397.5
2018-07-21T09:34:52.638Z,426.7
2018-07-21T09:39:52.393Z,433.3
2018-07-21T09:44:52.697Z,437.5
2018-07-21T09:49:52.452Z,444.2
2018-07-21T09:54:52.408Z,463.3
2018-07-21T09:59:52.453Z,482.5
2018-07-21T10:04:52.499Z,482.5
2018-07-21T10:09:52.677Z,495
2018-07-21T10:14:52.608Z,497.5
2018-07-21T10:19:52.459Z,529.2
2018-07-21T10:24:52.647Z,530.8
2018-07-21T10:29:52.348Z,544.2
2018-07-21T10:34:52.440Z,550.8
2018-07-21T10:39:52.582Z,573.3
2018-07-21T10:44:52.389Z,602.5
2018-07-21T10:49:52.420Z,635.8
2018-07-21T10:54:52.323Z,654.2
2018-07-21T10:59:52.507Z,694.2
2018-07-21T11:04:52.357Z,709.2
2018-07-21T11:09:52.336Z,751.7
2018-07-21T11:14:52.647Z,766.7
2018-07-21T11:19:52.536Z,785
2018-07-21T11:24:52.703Z,800
2018-07-21T11:29:52.478Z,812.5
2018-07-21T11:34:52.286Z,837.5
2018-07-21T11:39:52.332Z,838.3
2018-07-21T11:44:52.238Z,828.3
2018-07-21T11:49:52.606Z,847.5
2018-07-21T11:54:52.357Z,419.2
2018-07-21T11:59:52.511Z,904.2
2018-07-21T12:04:52.362Z,900.8
2018-07-21T12:09:52.723Z,928.3
2018-07-21T12:14:52.482Z,981.7
2018-07-21T12:19:52.508Z,960.8
2018-07-21T12:24:52.501Z,251.7
2018-07-21T12:29:52.472Z,287.5
2018-07-21T12:34:52.467Z,833.3
2018-07-21T12:39:52.265Z,1041.7
2018-07-21T12:44:52.272Z,1107.5
2018-07-21T12:49:52.171Z,325.8
2018-07-21T12:54:52.315Z,285.8
2018-07-21T12:59:52.427Z,1068.3
2018-07-21T13:04:52.199Z,1061.7
2018-07-21T13:09:52.478Z,1169.2
2018-07-21T13:14:52.427Z,290.8
2018-07-21T13:19:52.323Z,808.3
2018-07-21T13:24:52.326Z,1007.5
2018-07-21T13:29:52.211Z,1120
2018-07-21T13:34:52.116Z,334.2
2018-07-21T13:39:52.306Z,220
2018-07-21T13:44:52.406Z,468.3
2018-07-21T13:49:52.179Z,455.8
2018-07-21T13:54:52.034Z,208.3
2018-07-21T13:59:52.033Z,248.3
2018-07-21T14:04:52.166Z,1001.7
2018-07-21T14:09:52.082Z,1223.3
2018-07-21T14:14:52.201Z,1243.3
2018-07-21T14:19:52.390Z,1287.5
2018-07-21T14:24:52.263Z,1294.2
2018-07-21T14:29:52.379Z,1299.2
2018-07-21T14:34:52.121Z,1333.3
2018-07-21T14:39:52.001Z,1280
2018-07-21T14:44:52.011Z,1280.8
2018-07-21T14:49:52.011Z,1121.7
2018-07-21T14:54:52.396Z,1240
2018-07-21T14:59:52.317Z,1258.3
2018-07-21T15:04:52.237Z,1225.8
2018-07-21T15:09:52.185Z,519.2
2018-07-21T15:14:52.291Z,1064.2
2018-07-21T15:19:51.920Z,1065
2018-07-21T15:24:52.256Z,1114.2
2018-07-21T15:29:52.071Z,142.5
2018-07-21T15:34:52.125Z,1030.8
2018-07-21T15:39:52.049Z,985
2018-07-21T15:44:51.898Z,928.3
2018-07-21T15:49:52.250Z,815.8
2018-07-21T15:54:51.993Z,479.2
2018-07-21T15:59:52.130Z,339.2
2018-07-21T16:04:52.082Z,289.2
2018-07-21T16:09:51.878Z,259.2
2018-07-21T16:14:51.941Z,240
2018-07-21T16:19:52.107Z,222.5
2018-07-21T16:24:52.007Z,205
2018-07-21T16:29:51.861Z,183.3
2018-07-21T16:34:52.006Z,163.3
2018-07-21T16:39:51.823Z,145.8
2018-07-21T16:44:51.997Z,132.5
2018-07-21T16:49:51.830Z,117.5
2018-07-21T16:54:51.869Z,108.3
2018-07-21T16:59:52.092Z,102.5
2018-07-21T17:04:51.983Z,97.5
2018-07-21T17:09:51.772Z,93.3
2018-07-21T17:14:51.776Z,91.7
2018-07-21T17:19:52.087Z,89.2
2018-07-21T17:24:51.704Z,85.8
2018-07-21T17:29:52.010Z,83.3
2018-07-21T17:34:51.993Z,81.7
2018-07-21T17:39:52.066Z,78.3
2018-07-21T17:44:52.036Z,74.2
2018-07-21T17:49:51.757Z,71.7
2018-07-21T17:54:52.005Z,69.2
2018-07-21T17:59:51.687Z,63.3
2018-07-21T18:04:51.899Z,56.7
2018-07-21T18:09:51.806Z,56.7
2018-07-21T18:14:51.652Z,53.3
2018-07-21T18:19:51.973Z,50.8
2018-07-21T18:24:51.916Z,50.8
2018-07-21T18:29:51.924Z,50.8
2018-07-21T18:34:51.984Z,50.8
2018-07-21T18:39:51.984Z,51.7
2018-07-21T18:44:51.707Z,41.7
2018-07-21T18:49:51.604Z,36.7
2018-07-21T18:54:51.806Z,33.3
2018-07-21T18:59:51.744Z,26.7
2018-07-21T19:04:51.604Z,20.8
2018-07-21T19:09:51.836Z,18.3
2018-07-21T19:14:51.587Z,15.8
2018-07-21T19:19:52.024Z,11.7
2018-07-21T19:24:51.795Z,9.2
2018-07-21T19:29:51.739Z,7.5
2018-07-21T19:34:51.816Z,5
2018-07-21T19:39:51.920Z,4.2
2018-07-21T19:44:51.708Z,2.5
2018-07-21T19:49:51.789Z,1.7
2018-07-21T19:54:51.735Z,0.8
2018-07-21T19:59:51.764Z,0
2018-07-21T20:04:51.480Z,0
2018-07-21T20:09:51.535Z,0
2018-07-21T20:14:51.841Z,0
2018-07-21T20:19:51.439Z,0
2018-07-21T20:24:51.667Z,0
2018-07-21T20:29:51.572Z,0
2018-07-21T20:34:51.716Z,0
2018-07-21T20:39:51.553Z,0
2018-07-21T20:44:51.725Z,0
2018-07-21T20:49:51.758Z,0
2018-07-21T20:54:51.498Z,0
2018-07-21T20:59:51.493Z,0
2018-07-21T21:04:51.647Z,0
2018-07-21T21:09:51.457Z,0
2018-07-21T21:14:51.624Z,0
2018-07-21T21:19:51.311Z,0
2018-07-21T21:24:51.378Z,0
2018-07-21T21:29:51.368Z,0
2018-07-21T21:34:51.647Z,0
2018-07-21T21:39:51.381Z,0
2018-07-21T21:44:51.482Z,0
2018-07-21T21:49:51.639Z,0
2018-07-21T21:54:51.575Z,0
2018-07-21T21:59:51.633Z,0
2018-07-21T22:04:51.569Z,0
2018-07-21T22:09:51.275Z,0
2018-07-21T22:14:51.322Z,0
2018-07-21T22:19:51.473Z,0
2018-07-21T22:24:51.599Z,0
2018-07-21T22:29:51.567Z,0
2018-07-21T22:34:51.529Z,0
2018-07-21T22:39:51.549Z,0
2018-07-21T22:44:51.352Z,0
2018-07-21T22:49:51.567Z,0
2018-07-21T22:54:51.411Z,0
2018-07-21T22:59:51.259Z,0
2018-07-21T23:04:51.307Z,0
2018-07-21T23:09:51.211Z,0
2018-07-21T23:14:51.388Z,0
2018-07-21T23:19:51.403Z,0
2018-07-21T23:24:51.202Z,0
2018-07-21T23:29:51.372Z,0
2018-07-21T23:34:51.506Z,0
2018-07-21T23:39:51.321Z,0
2018-07-21T23:44:51.293Z,0
2018-07-21T23:49:51.313Z,0
2018-07-21T23:54:51.283Z,0
2018-07-21T23:59:51.457Z,0
